sensor_id;sensor_type;location;lat;lon;timestamp;P1;durP1;ratioP1;P2;durP2;ratioP2
52072;SDS011;38074;51.232;6.826;2023-04-24T00:05:09;1.20;;;0.30;;
52072;SDS011;38074;51.232;6.826;2023-04-24T00:12:25;1.33;;;0.40;;
52072;SDS011;38074;51.232;6.826;2023-04-24T00:19:40;1.50;;;0.20;;
52072;SDS011;38074;51.232;6.826;2023-04-24T00:26:56;1.87;;;0.30;;
52072;SDS011;38074;51.232;6.826;2023-04-24T00:34:12;0.85;;;0.15;;
52072;SDS011;38074;51.232;6.826;2023-04-24T00:41:27;3.10;;;0.20;;
52072;SDS011;38074;51.232;6.826;2023-04-24T00:48:43;0.63;;;0.20;;
52072;SDS011;38074;51.232;6.826;2023-04-24T00:55:59;0.70;;;0.20;;
52072;SDS011;38074;51.232;6.826;2023-04-24T01:03:15;0.80;;;0.20;;
52072;SDS011;38074;51.232;6.826;2023-04-24T01:10:31;1.00;;;0.35;;
52072;SDS011;38074;51.232;6.826;2023-04-24T01:25:05;0.85;;;0.20;;
52072;SDS011;38074;51.232;6.826;2023-04-24T01:32:20;0.93;;;0.20;;
52072;SDS011;38074;51.232;6.826;2023-04-24T01:39:36;0.30;;;0.20;;
52072;SDS011;38074;51.232;6.826;2023-04-24T01:46:52;1.08;;;0.30;;
52072;SDS011;38074;51.232;6.826;2023-04-24T01:54:08;1.60;;;0.20;;
52072;SDS011;38074;51.232;6.826;2023-04-24T02:01:24;1.07;;;0.40;;
52072;SDS011;38074;51.232;6.826;2023-04-24T02:08:40;0.20;;;0.10;;
52072;SDS011;38074;51.232;6.826;2023-04-24T02:15:56;0.40;;;0.20;;
52072;SDS011;38074;51.232;6.826;2023-04-24T02:23:13;0.45;;;0.20;;
52072;SDS011;38074;51.232;6.826;2023-04-24T02:30:29;0.38;;;0.20;;
52072;SDS011;38074;51.232;6.826;2023-04-24T02:37:45;0.70;;;0.30;;
52072;SDS011;38074;51.232;6.826;2023-04-24T02:45:00;0.77;;;0.20;;
52072;SDS011;38074;51.232;6.826;2023-04-24T02:52:16;0.40;;;0.20;;
52072;SDS011;38074;51.232;6.826;2023-04-24T02:59:31;3.10;;;0.30;;
52072;SDS011;38074;51.232;6.826;2023-04-24T03:06:47;0.90;;;0.30;;
52072;SDS011;38074;51.232;6.826;2023-04-24T03:14:03;0.30;;;0.20;;
52072;SDS011;38074;51.232;6.826;2023-04-24T03:21:18;0.97;;;0.20;;
52072;SDS011;38074;51.232;6.826;2023-04-24T03:28:34;1.58;;;0.20;;
52072;SDS011;38074;51.232;6.826;2023-04-24T03:35:49;0.57;;;0.20;;
52072;SDS011;38074;51.232;6.826;2023-04-24T03:43:05;1.13;;;0.40;;
52072;SDS011;38074;51.232;6.826;2023-04-24T03:50:20;0.30;;;0.20;;
52072;SDS011;38074;51.232;6.826;2023-04-24T03:57:36;2.13;;;0.30;;
52072;SDS011;38074;51.232;6.826;2023-04-24T04:04:51;0.97;;;0.30;;
52072;SDS011;38074;51.232;6.826;2023-04-24T04:12:07;0.40;;;0.20;;
52072;SDS011;38074;51.232;6.826;2023-04-24T04:19:22;1.10;;;0.37;;
52072;SDS011;38074;51.232;6.826;2023-04-24T04:26:38;0.50;;;0.30;;
52072;SDS011;38074;51.232;6.826;2023-04-24T04:33:54;0.30;;;0.20;;
52072;SDS011;38074;51.232;6.826;2023-04-24T04:41:09;0.70;;;0.20;;
52072;SDS011;38074;51.232;6.826;2023-04-24T04:48:26;0.82;;;0.32;;
52072;SDS011;38074;51.232;6.826;2023-04-24T04:55:42;0.73;;;0.30;;
52072;SDS011;38074;51.232;6.826;2023-04-24T05:02:57;0.63;;;0.30;;
52072;SDS011;38074;51.232;6.826;2023-04-24T05:10:13;3.67;;;0.53;;
52072;SDS011;38074;51.232;6.826;2023-04-24T05:17:29;6.50;;;0.53;;
52072;SDS011;38074;51.232;6.826;2023-04-24T05:24:44;7.65;;;0.50;;
52072;SDS011;38074;51.232;6.826;2023-04-24T05:32:00;1.80;;;0.40;;
52072;SDS011;38074;51.232;6.826;2023-04-24T05:39:15;3.07;;;0.63;;
52072;SDS011;38074;51.232;6.826;2023-04-24T05:46:32;1.55;;;0.60;;
52072;SDS011;38074;51.232;6.826;2023-04-24T05:53:48;4.60;;;0.60;;
52072;SDS011;38074;51.232;6.826;2023-04-24T06:01:03;6.30;;;0.83;;
52072;SDS011;38074;51.232;6.826;2023-04-24T06:08:19;1.50;;;0.52;;
52072;SDS011;38074;51.232;6.826;2023-04-24T06:15:34;19.80;;;4.40;;
52072;SDS011;38074;51.232;6.826;2023-04-24T06:22:50;10.32;;;3.03;;
52072;SDS011;38074;51.232;6.826;2023-04-24T06:30:06;9.60;;;2.87;;
52072;SDS011;38074;51.232;6.826;2023-04-24T06:37:22;10.98;;;3.60;;
52072;SDS011;38074;51.232;6.826;2023-04-24T06:44:37;13.20;;;2.30;;
52072;SDS011;38074;51.232;6.826;2023-04-24T06:51:55;8.40;;;2.03;;
52072;SDS011;38074;51.232;6.826;2023-04-24T06:59:11;6.20;;;1.70;;
52072;SDS011;38074;51.232;6.826;2023-04-24T07:06:26;9.17;;;2.20;;
52072;SDS011;38074;51.232;6.826;2023-04-24T07:13:42;8.60;;;1.87;;
52072;SDS011;38074;51.232;6.826;2023-04-24T07:20:58;6.80;;;1.77;;
52072;SDS011;38074;51.232;6.826;2023-04-24T07:28:14;7.73;;;1.87;;
52072;SDS011;38074;51.232;6.826;2023-04-24T07:35:30;6.78;;;1.50;;
52072;SDS011;38074;51.232;6.826;2023-04-24T07:42:45;5.13;;;1.37;;
52072;SDS011;38074;51.232;6.826;2023-04-24T07:50:03;6.25;;;1.42;;
52072;SDS011;38074;51.232;6.826;2023-04-24T07:57:19;5.60;;;1.15;;
52072;SDS011;38074;51.232;6.826;2023-04-24T08:04:34;4.33;;;1.00;;
52072;SDS011;38074;51.232;6.826;2023-04-24T08:11:50;3.73;;;0.80;;
52072;SDS011;38074;51.232;6.826;2023-04-24T08:19:06;1.98;;;0.73;;
52072;SDS011;38074;51.232;6.826;2023-04-24T08:26:21;4.82;;;1.10;;
52072;SDS011;38074;51.232;6.826;2023-04-24T08:33:37;4.32;;;0.90;;
52072;SDS011;38074;51.232;6.826;2023-04-24T08:40:53;4.80;;;1.10;;
52072;SDS011;38074;51.232;6.826;2023-04-24T08:48:09;2.77;;;0.80;;
52072;SDS011;38074;51.232;6.826;2023-04-24T08:55:25;3.30;;;0.60;;
52072;SDS011;38074;51.232;6.826;2023-04-24T09:02:41;2.95;;;0.70;;
52072;SDS011;38074;51.232;6.826;2023-04-24T09:10:01;3.45;;;0.77;;
52072;SDS011;38074;51.232;6.826;2023-04-24T09:17:17;2.25;;;0.57;;
52072;SDS011;38074;51.232;6.826;2023-04-24T09:24:33;2.30;;;0.53;;
52072;SDS011;38074;51.232;6.826;2023-04-24T09:31:50;1.60;;;0.60;;
52072;SDS011;38074;51.232;6.826;2023-04-24T09:39:09;2.22;;;0.60;;
52072;SDS011;38074;51.232;6.826;2023-04-24T09:46:30;1.48;;;0.50;;
52072;SDS011;38074;51.232;6.826;2023-04-24T09:53:46;1.85;;;0.57;;
52072;SDS011;38074;51.232;6.826;2023-04-24T10:01:02;1.10;;;0.40;;
52072;SDS011;38074;51.232;6.826;2023-04-24T10:08:18;2.00;;;0.40;;
52072;SDS011;38074;51.232;6.826;2023-04-24T10:15:34;1.60;;;0.60;;
52072;SDS011;38074;51.232;6.826;2023-04-24T10:22:51;1.95;;;0.55;;
52072;SDS011;38074;51.232;6.826;2023-04-24T10:30:08;1.27;;;0.52;;
52072;SDS011;38074;51.232;6.826;2023-04-24T10:37:27;1.92;;;0.50;;
52072;SDS011;38074;51.232;6.826;2023-04-24T10:44:44;0.98;;;0.22;;
52072;SDS011;38074;51.232;6.826;2023-04-24T10:52:03;0.88;;;0.30;;
52072;SDS011;38074;51.232;6.826;2023-04-24T10:59:29;0.88;;;0.30;;
52072;SDS011;38074;51.232;6.826;2023-04-24T11:06:50;1.15;;;0.30;;
52072;SDS011;38074;51.232;6.826;2023-04-24T11:14:07;0.77;;;0.30;;
52072;SDS011;38074;51.232;6.826;2023-04-24T11:21:23;0.90;;;0.30;;
52072;SDS011;38074;51.232;6.826;2023-04-24T11:28:48;1.07;;;0.30;;
52072;SDS011;38074;51.232;6.826;2023-04-24T11:36:05;1.20;;;0.45;;
52072;SDS011;38074;51.232;6.826;2023-04-24T11:43:20;1.38;;;0.40;;
52072;SDS011;38074;51.232;6.826;2023-04-24T11:50:37;0.90;;;0.47;;
52072;SDS011;38074;51.232;6.826;2023-04-24T11:57:53;0.85;;;0.30;;
52072;SDS011;38074;51.232;6.826;2023-04-24T12:05:29;1.88;;;0.32;;
52072;SDS011;38074;51.232;6.826;2023-04-24T12:12:46;1.55;;;0.30;;
52072;SDS011;38074;51.232;6.826;2023-04-24T12:20:06;0.82;;;0.35;;
52072;SDS011;38074;51.232;6.826;2023-04-24T12:27:22;1.05;;;0.30;;
52072;SDS011;38074;51.232;6.826;2023-04-24T12:34:38;0.55;;;0.22;;
52072;SDS011;38074;51.232;6.826;2023-04-24T12:41:54;1.43;;;0.30;;
52072;SDS011;38074;51.232;6.826;2023-04-24T12:49:12;0.60;;;0.20;;
52072;SDS011;38074;51.232;6.826;2023-04-24T12:56:27;0.73;;;0.30;;
52072;SDS011;38074;51.232;6.826;2023-04-24T13:03:43;1.47;;;0.30;;
52072;SDS011;38074;51.232;6.826;2023-04-24T13:10:58;0.50;;;0.20;;
52072;SDS011;38074;51.232;6.826;2023-04-24T13:18:14;0.50;;;0.30;;
52072;SDS011;38074;51.232;6.826;2023-04-24T13:25:34;0.50;;;0.20;;
52072;SDS011;38074;51.232;6.826;2023-04-24T13:32:51;0.52;;;0.20;;
52072;SDS011;38074;51.232;6.826;2023-04-24T13:40:07;0.35;;;0.10;;
52072;SDS011;38074;51.232;6.826;2023-04-24T13:47:23;0.33;;;0.20;;
52072;SDS011;38074;51.232;6.826;2023-04-24T13:54:39;0.45;;;0.25;;
52072;SDS011;38074;51.232;6.826;2023-04-24T14:01:55;0.80;;;0.27;;
52072;SDS011;38074;51.232;6.826;2023-04-24T14:09:10;1.17;;;0.20;;
52072;SDS011;38074;51.232;6.826;2023-04-24T14:16:26;0.30;;;0.10;;
52072;SDS011;38074;51.232;6.826;2023-04-24T14:23:41;1.80;;;0.30;;
52072;SDS011;38074;51.232;6.826;2023-04-24T14:30:57;0.60;;;0.20;;
52072;SDS011;38074;51.232;6.826;2023-04-24T14:38:12;0.30;;;0.20;;
52072;SDS011;38074;51.232;6.826;2023-04-24T14:45:28;1.65;;;0.40;;
52072;SDS011;38074;51.232;6.826;2023-04-24T14:52:44;0.63;;;0.20;;
52072;SDS011;38074;51.232;6.826;2023-04-24T14:59:59;2.00;;;0.50;;
52072;SDS011;38074;51.232;6.826;2023-04-24T15:07:15;0.63;;;0.30;;
52072;SDS011;38074;51.232;6.826;2023-04-24T15:14:31;2.47;;;0.20;;
52072;SDS011;38074;51.232;6.826;2023-04-24T15:21:46;1.40;;;0.27;;
52072;SDS011;38074;51.232;6.826;2023-04-24T15:29:02;1.03;;;0.57;;
52072;SDS011;38074;51.232;6.826;2023-04-24T15:36:17;0.77;;;0.30;;
52072;SDS011;38074;51.232;6.826;2023-04-24T15:43:34;2.87;;;0.33;;
52072;SDS011;38074;51.232;6.826;2023-04-24T15:50:49;0.30;;;0.20;;
52072;SDS011;38074;51.232;6.826;2023-04-24T15:58:05;4.20;;;0.33;;
52072;SDS011;38074;51.232;6.826;2023-04-24T16:05:20;1.67;;;0.60;;
52072;SDS011;38074;51.232;6.826;2023-04-24T16:12:38;5.00;;;0.30;;
52072;SDS011;38074;51.232;6.826;2023-04-24T16:19:53;5.40;;;0.50;;
52072;SDS011;38074;51.232;6.826;2023-04-24T16:27:09;2.65;;;0.47;;
52072;SDS011;38074;51.232;6.826;2023-04-24T16:34:25;6.30;;;0.70;;
52072;SDS011;38074;51.232;6.826;2023-04-24T16:41:40;0.77;;;0.20;;
52072;SDS011;38074;51.232;6.826;2023-04-24T16:48:56;10.50;;;0.60;;
52072;SDS011;38074;51.232;6.826;2023-04-24T16:56:12;3.58;;;0.88;;
52072;SDS011;38074;51.232;6.826;2023-04-24T17:03:28;3.78;;;0.55;;
52072;SDS011;38074;51.232;6.826;2023-04-24T17:10:44;6.60;;;0.97;;
52072;SDS011;38074;51.232;6.826;2023-04-24T17:17:59;4.35;;;0.50;;
52072;SDS011;38074;51.232;6.826;2023-04-24T17:25:16;3.87;;;0.90;;
52072;SDS011;38074;51.232;6.826;2023-04-24T17:32:31;5.28;;;0.88;;
52072;SDS011;38074;51.232;6.826;2023-04-24T17:39:47;5.53;;;0.87;;
52072;SDS011;38074;51.232;6.826;2023-04-24T17:47:04;3.05;;;0.90;;
52072;SDS011;38074;51.232;6.826;2023-04-24T17:54:19;5.37;;;0.77;;
52072;SDS011;38074;51.232;6.826;2023-04-24T18:01:35;3.67;;;0.80;;
52072;SDS011;38074;51.232;6.826;2023-04-24T18:08:50;6.83;;;1.10;;
52072;SDS011;38074;51.232;6.826;2023-04-24T18:16:06;3.08;;;0.88;;
52072;SDS011;38074;51.232;6.826;2023-04-24T18:23:21;4.10;;;0.57;;
52072;SDS011;38074;51.232;6.826;2023-04-24T18:30:37;3.57;;;0.70;;
52072;SDS011;38074;51.232;6.826;2023-04-24T18:37:52;6.68;;;0.90;;
52072;SDS011;38074;51.232;6.826;2023-04-24T18:45:08;5.77;;;1.00;;
52072;SDS011;38074;51.232;6.826;2023-04-24T18:52:25;7.80;;;1.90;;
52072;SDS011;38074;51.232;6.826;2023-04-24T18:59:40;7.57;;;1.20;;
52072;SDS011;38074;51.232;6.826;2023-04-24T19:06:56;8.53;;;1.40;;
52072;SDS011;38074;51.232;6.826;2023-04-24T19:14:11;3.03;;;0.77;;
52072;SDS011;38074;51.232;6.826;2023-04-24T19:21:27;4.65;;;1.23;;
52072;SDS011;38074;51.232;6.826;2023-04-24T19:28:43;4.17;;;0.90;;
52072;SDS011;38074;51.232;6.826;2023-04-24T19:35:58;6.70;;;0.60;;
52072;SDS011;38074;51.232;6.826;2023-04-24T19:43:14;2.45;;;0.80;;
52072;SDS011;38074;51.232;6.826;2023-04-24T19:50:30;2.03;;;0.68;;
52072;SDS011;38074;51.232;6.826;2023-04-24T19:57:45;2.83;;;0.67;;
52072;SDS011;38074;51.232;6.826;2023-04-24T20:05:01;4.40;;;0.67;;
52072;SDS011;38074;51.232;6.826;2023-04-24T20:12:16;1.20;;;0.30;;
52072;SDS011;38074;51.232;6.826;2023-04-24T20:19:33;3.00;;;0.63;;
52072;SDS011;38074;51.232;6.826;2023-04-24T20:26:49;2.15;;;0.52;;
52072;SDS011;38074;51.232;6.826;2023-04-24T20:34:04;1.50;;;0.40;;
52072;SDS011;38074;51.232;6.826;2023-04-24T20:41:20;2.92;;;0.40;;
52072;SDS011;38074;51.232;6.826;2023-04-24T20:48:36;2.77;;;0.50;;
52072;SDS011;38074;51.232;6.826;2023-04-24T20:55:51;1.90;;;0.30;;
52072;SDS011;38074;51.232;6.826;2023-04-24T21:03:07;1.05;;;0.30;;
52072;SDS011;38074;51.232;6.826;2023-04-24T21:10:22;1.40;;;0.40;;
52072;SDS011;38074;51.232;6.826;2023-04-24T21:17:39;1.57;;;0.60;;
52072;SDS011;38074;51.232;6.826;2023-04-24T21:24:54;2.53;;;0.65;;
52072;SDS011;38074;51.232;6.826;2023-04-24T21:32:10;0.95;;;0.38;;
52072;SDS011;38074;51.232;6.826;2023-04-24T21:39:25;0.80;;;0.30;;
52072;SDS011;38074;51.232;6.826;2023-04-24T21:46:41;0.33;;;0.20;;
52072;SDS011;38074;51.232;6.826;2023-04-24T21:53:58;0.80;;;0.20;;
52072;SDS011;38074;51.232;6.826;2023-04-24T22:01:13;0.40;;;0.20;;
52072;SDS011;38074;51.232;6.826;2023-04-24T22:08:29;2.35;;;0.40;;
52072;SDS011;38074;51.232;6.826;2023-04-24T22:15:46;0.50;;;0.20;;
52072;SDS011;38074;51.232;6.826;2023-04-24T22:23:04;1.27;;;0.20;;
52072;SDS011;38074;51.232;6.826;2023-04-24T22:30:19;2.10;;;0.40;;
52072;SDS011;38074;51.232;6.826;2023-04-24T22:37:35;1.50;;;0.40;;
52072;SDS011;38074;51.232;6.826;2023-04-24T22:44:51;0.77;;;0.30;;
52072;SDS011;38074;51.232;6.826;2023-04-24T22:52:06;0.40;;;0.20;;
52072;SDS011;38074;51.232;6.826;2023-04-24T22:59:22;0.65;;;0.30;;
52072;SDS011;38074;51.232;6.826;2023-04-24T23:06:38;1.90;;;0.30;;
52072;SDS011;38074;51.232;6.826;2023-04-24T23:13:54;0.73;;;0.30;;
52072;SDS011;38074;51.232;6.826;2023-04-24T23:21:10;1.10;;;0.50;;
52072;SDS011;38074;51.232;6.826;2023-04-24T23:28:26;0.32;;;0.20;;
52072;SDS011;38074;51.232;6.826;2023-04-24T23:35:41;0.90;;;0.30;;
52072;SDS011;38074;51.232;6.826;2023-04-24T23:42:57;0.70;;;0.30;;
52072;SDS011;38074;51.232;6.826;2023-04-24T23:50:13;0.70;;;0.40;;
52072;SDS011;38074;51.232;6.826;2023-04-24T23:57:28;0.93;;;0.30;;
